sensor_id;sensor_type;location;lat;lon;timestamp;P1;durP1;ratioP1;P2;durP2;ratioP2
68509;SDS011;55512;50.102;19.958;2022-09-27T00:00:39;15.50;;;9.60;;
68509;SDS011;55512;50.102;19.958;2022-09-27T00:03:09;15.60;;;9.60;;
68509;SDS011;55512;50.102;19.958;2022-09-27T00:05:35;16.70;;;10.30;;
68509;SDS011;55512;50.102;19.958;2022-09-27T00:08:02;16.40;;;9.80;;
68509;SDS011;55512;50.102;19.958;2022-09-27T00:10:28;15.10;;;8.90;;
68509;SDS011;55512;50.102;19.958;2022-09-27T00:12:54;15.60;;;10.10;;
68509;SDS011;55512;50.102;19.958;2022-09-27T00:15:20;16.50;;;9.30;;
68509;SDS011;55512;50.102;19.958;2022-09-27T00:17:46;13.80;;;7.60;;
68509;SDS011;55512;50.102;19.958;2022-09-27T00:20:16;14.70;;;8.20;;
68509;SDS011;55512;50.102;19.958;2022-09-27T00:22:43;13.60;;;7.50;;
68509;SDS011;55512;50.102;19.958;2022-09-27T00:25:08;13.60;;;8.00;;
68509;SDS011;55512;50.102;19.958;2022-09-27T00:27:34;13.80;;;8.60;;
68509;SDS011;55512;50.102;19.958;2022-09-27T00:29:59;14.50;;;8.30;;
68509;SDS011;55512;50.102;19.958;2022-09-27T00:32:25;12.50;;;8.00;;
68509;SDS011;55512;50.102;19.958;2022-09-27T00:34:50;13.60;;;8.30;;
68509;SDS011;55512;50.102;19.958;2022-09-27T00:37:16;13.30;;;7.50;;
68509;SDS011;55512;50.102;19.958;2022-09-27T00:39:41;14.60;;;8.70;;
68509;SDS011;55512;50.102;19.958;2022-09-27T00:42:10;13.70;;;8.00;;
68509;SDS011;55512;50.102;19.958;2022-09-27T00:50:25;13.20;;;7.40;;
68509;SDS011;55512;50.102;19.958;2022-09-27T00:55:37;11.00;;;7.00;;
68509;SDS011;55512;50.102;19.958;2022-09-27T00:58:08;12.70;;;7.30;;
68509;SDS011;55512;50.102;19.958;2022-09-27T01:00:39;10.60;;;6.80;;
68509;SDS011;55512;50.102;19.958;2022-09-27T01:03:12;12.90;;;8.30;;
68509;SDS011;55512;50.102;19.958;2022-09-27T01:05:45;11.90;;;6.90;;
68509;SDS011;55512;50.102;19.958;2022-09-27T01:08:11;12.00;;;7.00;;
68509;SDS011;55512;50.102;19.958;2022-09-27T01:10:42;12.80;;;8.50;;
68509;SDS011;55512;50.102;19.958;2022-09-27T01:13:22;13.90;;;7.30;;
68509;SDS011;55512;50.102;19.958;2022-09-27T01:16:19;13.50;;;7.60;;
68509;SDS011;55512;50.102;19.958;2022-09-27T01:21:43;15.80;;;8.10;;
68509;SDS011;55512;50.102;19.958;2022-09-27T01:24:41;13.50;;;7.60;;
68509;SDS011;55512;50.102;19.958;2022-09-27T01:33:46;14.70;;;7.30;;
68509;SDS011;55512;50.102;19.958;2022-09-27T01:36:26;11.60;;;6.70;;
68509;SDS011;55512;50.102;19.958;2022-09-27T01:39:14;11.10;;;6.70;;
68509;SDS011;55512;50.102;19.958;2022-09-27T01:45:55;11.80;;;7.20;;
68509;SDS011;55512;50.102;19.958;2022-09-27T01:48:08;13.30;;;7.60;;
68509;SDS011;55512;50.102;19.958;2022-09-27T01:50:43;12.80;;;7.30;;
68509;SDS011;55512;50.102;19.958;2022-09-27T01:56:07;12.90;;;6.70;;
68509;SDS011;55512;50.102;19.958;2022-09-27T02:01:21;10.80;;;6.40;;
68509;SDS011;55512;50.102;19.958;2022-09-27T02:03:51;9.90;;;6.20;;
68509;SDS011;55512;50.102;19.958;2022-09-27T02:06:33;8.40;;;5.60;;
68509;SDS011;55512;50.102;19.958;2022-09-27T02:09:07;9.90;;;6.30;;
68509;SDS011;55512;50.102;19.958;2022-09-27T02:11:41;11.50;;;6.80;;
68509;SDS011;55512;50.102;19.958;2022-09-27T02:14:17;11.30;;;6.30;;
68509;SDS011;55512;50.102;19.958;2022-09-27T02:24:58;12.30;;;7.30;;
68509;SDS011;55512;50.102;19.958;2022-09-27T02:27:39;12.40;;;7.70;;
68509;SDS011;55512;50.102;19.958;2022-09-27T02:30:24;12.70;;;7.30;;
68509;SDS011;55512;50.102;19.958;2022-09-27T02:32:51;12.10;;;6.60;;
68509;SDS011;55512;50.102;19.958;2022-09-27T02:35:32;12.80;;;7.20;;
68509;SDS011;55512;50.102;19.958;2022-09-27T02:37:59;12.40;;;7.50;;
68509;SDS011;55512;50.102;19.958;2022-09-27T02:40:31;11.50;;;6.70;;
68509;SDS011;55512;50.102;19.958;2022-09-27T02:42:59;10.90;;;6.50;;
68509;SDS011;55512;50.102;19.958;2022-09-27T02:45:31;11.00;;;6.40;;
68509;SDS011;55512;50.102;19.958;2022-09-27T02:54:25;11.00;;;6.00;;
68509;SDS011;55512;50.102;19.958;2022-09-27T02:59:49;11.70;;;7.00;;
68509;SDS011;55512;50.102;19.958;2022-09-27T03:02:40;11.20;;;7.40;;
68509;SDS011;55512;50.102;19.958;2022-09-27T03:05:21;11.80;;;7.30;;
68509;SDS011;55512;50.102;19.958;2022-09-27T03:07:50;12.80;;;7.70;;
68509;SDS011;55512;50.102;19.958;2022-09-27T03:10:22;11.00;;;7.20;;
68509;SDS011;55512;50.102;19.958;2022-09-27T03:12:50;12.00;;;7.20;;
68509;SDS011;55512;50.102;19.958;2022-09-27T03:15:16;12.00;;;7.10;;
68509;SDS011;55512;50.102;19.958;2022-09-27T03:17:41;11.20;;;6.70;;
68509;SDS011;55512;50.102;19.958;2022-09-27T03:20:07;11.30;;;6.50;;
68509;SDS011;55512;50.102;19.958;2022-09-27T03:22:34;9.00;;;5.80;;
68509;SDS011;55512;50.102;19.958;2022-09-27T03:25:00;13.50;;;6.80;;
68509;SDS011;55512;50.102;19.958;2022-09-27T03:27:26;10.20;;;6.50;;
68509;SDS011;55512;50.102;19.958;2022-09-27T03:29:51;11.00;;;6.60;;
68509;SDS011;55512;50.102;19.958;2022-09-27T03:32:17;11.80;;;6.80;;
68509;SDS011;55512;50.102;19.958;2022-09-27T03:34:43;12.80;;;6.70;;
68509;SDS011;55512;50.102;19.958;2022-09-27T03:37:09;11.60;;;6.20;;
68509;SDS011;55512;50.102;19.958;2022-09-27T03:39:34;10.60;;;6.40;;
68509;SDS011;55512;50.102;19.958;2022-09-27T03:42:00;10.90;;;6.50;;
68509;SDS011;55512;50.102;19.958;2022-09-27T03:44:25;11.10;;;6.30;;
68509;SDS011;55512;50.102;19.958;2022-09-27T03:46:51;10.80;;;6.10;;
68509;SDS011;55512;50.102;19.958;2022-09-27T03:49:16;11.10;;;5.90;;
68509;SDS011;55512;50.102;19.958;2022-09-27T03:51:42;10.40;;;6.20;;
68509;SDS011;55512;50.102;19.958;2022-09-27T03:54:08;11.70;;;6.90;;
68509;SDS011;55512;50.102;19.958;2022-09-27T03:56:34;10.80;;;6.80;;
68509;SDS011;55512;50.102;19.958;2022-09-27T03:59:00;11.20;;;7.00;;
68509;SDS011;55512;50.102;19.958;2022-09-27T04:01:26;11.70;;;7.10;;
68509;SDS011;55512;50.102;19.958;2022-09-27T04:03:53;11.90;;;7.30;;
68509;SDS011;55512;50.102;19.958;2022-09-27T04:06:18;14.10;;;7.90;;
68509;SDS011;55512;50.102;19.958;2022-09-27T04:08:44;14.30;;;8.30;;
68509;SDS011;55512;50.102;19.958;2022-09-27T04:11:10;13.20;;;8.70;;
68509;SDS011;55512;50.102;19.958;2022-09-27T04:13:36;14.10;;;8.10;;
68509;SDS011;55512;50.102;19.958;2022-09-27T04:16:02;13.60;;;8.80;;
68509;SDS011;55512;50.102;19.958;2022-09-27T04:18:28;15.10;;;8.30;;
68509;SDS011;55512;50.102;19.958;2022-09-27T04:20:54;14.50;;;8.50;;
68509;SDS011;55512;50.102;19.958;2022-09-27T04:23:19;12.90;;;7.40;;
68509;SDS011;55512;50.102;19.958;2022-09-27T04:25:45;11.60;;;7.00;;
68509;SDS011;55512;50.102;19.958;2022-09-27T04:28:11;14.70;;;6.60;;
68509;SDS011;55512;50.102;19.958;2022-09-27T04:30:37;11.10;;;6.70;;
68509;SDS011;55512;50.102;19.958;2022-09-27T04:33:03;11.00;;;6.90;;
68509;SDS011;55512;50.102;19.958;2022-09-27T04:35:29;10.80;;;6.80;;
68509;SDS011;55512;50.102;19.958;2022-09-27T04:38:13;13.70;;;6.50;;
68509;SDS011;55512;50.102;19.958;2022-09-27T04:40:39;12.10;;;6.80;;
68509;SDS011;55512;50.102;19.958;2022-09-27T04:43:06;11.90;;;6.60;;
68509;SDS011;55512;50.102;19.958;2022-09-27T04:45:31;10.20;;;6.70;;
68509;SDS011;55512;50.102;19.958;2022-09-27T04:47:57;11.00;;;6.90;;
68509;SDS011;55512;50.102;19.958;2022-09-27T04:50:23;14.00;;;7.10;;
68509;SDS011;55512;50.102;19.958;2022-09-27T04:52:50;12.90;;;7.00;;
68509;SDS011;55512;50.102;19.958;2022-09-27T04:55:17;14.40;;;6.30;;
68509;SDS011;55512;50.102;19.958;2022-09-27T04:57:43;17.70;;;7.40;;
68509;SDS011;55512;50.102;19.958;2022-09-27T05:00:11;13.00;;;6.50;;
68509;SDS011;55512;50.102;19.958;2022-09-27T05:02:37;15.70;;;9.40;;
68509;SDS011;55512;50.102;19.958;2022-09-27T05:05:03;14.00;;;7.20;;
68509;SDS011;55512;50.102;19.958;2022-09-27T05:07:32;16.00;;;7.60;;
68509;SDS011;55512;50.102;19.958;2022-09-27T05:09:59;16.50;;;8.00;;
68509;SDS011;55512;50.102;19.958;2022-09-27T05:12:24;12.30;;;7.40;;
68509;SDS011;55512;50.102;19.958;2022-09-27T05:14:53;12.70;;;6.70;;
68509;SDS011;55512;50.102;19.958;2022-09-27T05:17:18;11.40;;;5.40;;
68509;SDS011;55512;50.102;19.958;2022-09-27T05:19:46;13.10;;;6.40;;
68509;SDS011;55512;50.102;19.958;2022-09-27T05:22:12;13.80;;;7.10;;
68509;SDS011;55512;50.102;19.958;2022-09-27T05:24:38;11.20;;;6.60;;
68509;SDS011;55512;50.102;19.958;2022-09-27T05:27:04;10.80;;;6.00;;
68509;SDS011;55512;50.102;19.958;2022-09-27T05:29:33;13.70;;;6.90;;
68509;SDS011;55512;50.102;19.958;2022-09-27T05:32:01;12.50;;;6.90;;
68509;SDS011;55512;50.102;19.958;2022-09-27T05:34:27;12.70;;;7.90;;
68509;SDS011;55512;50.102;19.958;2022-09-27T05:36:53;12.20;;;6.60;;
68509;SDS011;55512;50.102;19.958;2022-09-27T05:39:18;13.10;;;8.30;;
68509;SDS011;55512;50.102;19.958;2022-09-27T05:41:45;14.10;;;7.50;;
68509;SDS011;55512;50.102;19.958;2022-09-27T05:44:13;13.00;;;7.60;;
68509;SDS011;55512;50.102;19.958;2022-09-27T05:46:38;14.90;;;8.20;;
68509;SDS011;55512;50.102;19.958;2022-09-27T05:49:04;13.60;;;6.80;;
68509;SDS011;55512;50.102;19.958;2022-09-27T05:51:31;13.00;;;7.90;;
68509;SDS011;55512;50.102;19.958;2022-09-27T05:53:56;14.00;;;7.50;;
68509;SDS011;55512;50.102;19.958;2022-09-27T05:56:22;17.40;;;8.40;;
68509;SDS011;55512;50.102;19.958;2022-09-27T05:58:49;14.70;;;8.20;;
68509;SDS011;55512;50.102;19.958;2022-09-27T06:01:15;17.20;;;9.40;;
68509;SDS011;55512;50.102;19.958;2022-09-27T06:03:42;16.30;;;9.20;;
68509;SDS011;55512;50.102;19.958;2022-09-27T06:06:08;17.10;;;9.90;;
68509;SDS011;55512;50.102;19.958;2022-09-27T06:08:37;17.30;;;9.20;;
68509;SDS011;55512;50.102;19.958;2022-09-27T06:11:09;15.70;;;8.90;;
68509;SDS011;55512;50.102;19.958;2022-09-27T06:13:39;16.30;;;9.20;;
68509;SDS011;55512;50.102;19.958;2022-09-27T06:16:06;16.40;;;9.60;;
68509;SDS011;55512;50.102;19.958;2022-09-27T06:18:34;14.90;;;8.50;;
68509;SDS011;55512;50.102;19.958;2022-09-27T06:21:00;15.00;;;9.50;;
68509;SDS011;55512;50.102;19.958;2022-09-27T06:23:28;16.80;;;9.80;;
68509;SDS011;55512;50.102;19.958;2022-09-27T06:26:00;18.50;;;9.50;;
68509;SDS011;55512;50.102;19.958;2022-09-27T06:28:27;14.30;;;8.70;;
68509;SDS011;55512;50.102;19.958;2022-09-27T06:30:53;17.70;;;8.70;;
68509;SDS011;55512;50.102;19.958;2022-09-27T06:33:20;16.50;;;9.60;;
68509;SDS011;55512;50.102;19.958;2022-09-27T06:35:46;17.10;;;10.00;;
68509;SDS011;55512;50.102;19.958;2022-09-27T06:38:15;17.30;;;9.90;;
68509;SDS011;55512;50.102;19.958;2022-09-27T06:40:43;16.20;;;9.30;;
68509;SDS011;55512;50.102;19.958;2022-09-27T06:43:10;18.60;;;10.60;;
68509;SDS011;55512;50.102;19.958;2022-09-27T06:45:37;21.90;;;11.00;;
68509;SDS011;55512;50.102;19.958;2022-09-27T06:48:05;22.10;;;11.80;;
68509;SDS011;55512;50.102;19.958;2022-09-27T06:50:34;22.20;;;13.30;;
68509;SDS011;55512;50.102;19.958;2022-09-27T06:53:02;21.20;;;12.40;;
68509;SDS011;55512;50.102;19.958;2022-09-27T06:55:29;26.40;;;13.10;;
68509;SDS011;55512;50.102;19.958;2022-09-27T06:57:56;27.30;;;14.40;;
68509;SDS011;55512;50.102;19.958;2022-09-27T07:00:42;28.20;;;13.90;;
68509;SDS011;55512;50.102;19.958;2022-09-27T07:03:09;23.30;;;13.50;;
68509;SDS011;55512;50.102;19.958;2022-09-27T07:05:37;23.50;;;13.40;;
68509;SDS011;55512;50.102;19.958;2022-09-27T07:08:03;23.60;;;14.10;;
68509;SDS011;55512;50.102;19.958;2022-09-27T07:10:32;22.50;;;13.70;;
68509;SDS011;55512;50.102;19.958;2022-09-27T07:13:04;21.80;;;12.80;;
68509;SDS011;55512;50.102;19.958;2022-09-27T07:15:32;23.80;;;14.40;;
68509;SDS011;55512;50.102;19.958;2022-09-27T07:18:04;23.80;;;13.00;;
68509;SDS011;55512;50.102;19.958;2022-09-27T07:20:31;23.00;;;13.00;;
68509;SDS011;55512;50.102;19.958;2022-09-27T07:22:57;24.60;;;12.90;;
68509;SDS011;55512;50.102;19.958;2022-09-27T07:25:25;23.40;;;13.60;;
68509;SDS011;55512;50.102;19.958;2022-09-27T07:27:51;22.50;;;12.50;;
68509;SDS011;55512;50.102;19.958;2022-09-27T07:30:18;21.80;;;11.50;;
68509;SDS011;55512;50.102;19.958;2022-09-27T07:32:45;19.10;;;10.50;;
68509;SDS011;55512;50.102;19.958;2022-09-27T07:35:12;22.00;;;10.90;;
68509;SDS011;55512;50.102;19.958;2022-09-27T07:37:40;18.10;;;10.60;;
68509;SDS011;55512;50.102;19.958;2022-09-27T07:40:07;21.60;;;11.40;;
68509;SDS011;55512;50.102;19.958;2022-09-27T07:42:35;19.10;;;10.90;;
68509;SDS011;55512;50.102;19.958;2022-09-27T07:45:06;18.20;;;10.00;;
68509;SDS011;55512;50.102;19.958;2022-09-27T07:47:32;16.80;;;10.60;;
68509;SDS011;55512;50.102;19.958;2022-09-27T07:49:58;18.70;;;10.40;;
68509;SDS011;55512;50.102;19.958;2022-09-27T07:52:23;17.00;;;9.90;;
68509;SDS011;55512;50.102;19.958;2022-09-27T07:54:49;18.00;;;9.80;;
68509;SDS011;55512;50.102;19.958;2022-09-27T07:57:15;18.40;;;10.30;;
68509;SDS011;55512;50.102;19.958;2022-09-27T07:59:41;17.80;;;9.90;;
68509;SDS011;55512;50.102;19.958;2022-09-27T08:02:14;17.10;;;10.30;;
68509;SDS011;55512;50.102;19.958;2022-09-27T08:04:41;16.50;;;10.50;;
68509;SDS011;55512;50.102;19.958;2022-09-27T08:07:09;17.40;;;9.50;;
68509;SDS011;55512;50.102;19.958;2022-09-27T08:09:35;19.70;;;9.00;;
68509;SDS011;55512;50.102;19.958;2022-09-27T08:12:01;17.40;;;10.50;;
68509;SDS011;55512;50.102;19.958;2022-09-27T08:14:28;18.00;;;10.10;;
68509;SDS011;55512;50.102;19.958;2022-09-27T08:16:54;15.70;;;9.00;;
68509;SDS011;55512;50.102;19.958;2022-09-27T08:19:20;16.10;;;9.90;;
68509;SDS011;55512;50.102;19.958;2022-09-27T08:21:45;15.80;;;9.50;;
68509;SDS011;55512;50.102;19.958;2022-09-27T08:24:12;16.50;;;9.10;;
68509;SDS011;55512;50.102;19.958;2022-09-27T08:26:37;13.90;;;8.80;;
68509;SDS011;55512;50.102;19.958;2022-09-27T08:29:03;13.30;;;8.40;;
68509;SDS011;55512;50.102;19.958;2022-09-27T08:31:29;16.30;;;8.20;;
68509;SDS011;55512;50.102;19.958;2022-09-27T08:33:54;15.80;;;8.90;;
68509;SDS011;55512;50.102;19.958;2022-09-27T08:36:21;12.40;;;8.30;;
68509;SDS011;55512;50.102;19.958;2022-09-27T08:38:48;13.30;;;9.00;;
68509;SDS011;55512;50.102;19.958;2022-09-27T08:44:12;13.90;;;8.70;;
68509;SDS011;55512;50.102;19.958;2022-09-27T08:46:57;14.00;;;8.30;;
68509;SDS011;55512;50.102;19.958;2022-09-27T08:49:42;14.60;;;8.10;;
68509;SDS011;55512;50.102;19.958;2022-09-27T08:52:20;14.30;;;8.30;;
68509;SDS011;55512;50.102;19.958;2022-09-27T08:54:55;15.60;;;9.20;;
68509;SDS011;55512;50.102;19.958;2022-09-27T08:57:23;15.50;;;9.30;;
68509;SDS011;55512;50.102;19.958;2022-09-27T09:02:36;22.70;;;10.30;;
68509;SDS011;55512;50.102;19.958;2022-09-27T09:05:08;20.30;;;10.90;;
68509;SDS011;55512;50.102;19.958;2022-09-27T09:07:48;19.20;;;10.40;;
68509;SDS011;55512;50.102;19.958;2022-09-27T09:10:35;22.50;;;11.90;;
68509;SDS011;55512;50.102;19.958;2022-09-27T09:27:42;19.60;;;11.20;;
68509;SDS011;55512;50.102;19.958;2022-09-27T09:30:22;19.50;;;10.10;;
68509;SDS011;55512;50.102;19.958;2022-09-27T09:36:30;16.20;;;10.10;;
68509;SDS011;55512;50.102;19.958;2022-09-27T09:39:11;29.10;;;10.60;;
68509;SDS011;55512;50.102;19.958;2022-09-27T09:42:23;20.90;;;11.00;;
68509;SDS011;55512;50.102;19.958;2022-09-27T09:45:00;19.20;;;11.70;;
68509;SDS011;55512;50.102;19.958;2022-09-27T09:50:44;22.30;;;12.00;;
68509;SDS011;55512;50.102;19.958;2022-09-27T09:56:08;21.40;;;12.00;;
68509;SDS011;55512;50.102;19.958;2022-09-27T09:58:46;20.50;;;11.70;;
68509;SDS011;55512;50.102;19.958;2022-09-27T10:01:26;20.40;;;10.90;;
68509;SDS011;55512;50.102;19.958;2022-09-27T10:03:57;16.20;;;10.30;;
68509;SDS011;55512;50.102;19.958;2022-09-27T10:06:24;15.10;;;10.10;;
68509;SDS011;55512;50.102;19.958;2022-09-27T10:08:52;15.60;;;10.10;;
68509;SDS011;55512;50.102;19.958;2022-09-27T10:11:35;13.30;;;9.20;;
68509;SDS011;55512;50.102;19.958;2022-09-27T10:14:08;15.40;;;8.80;;
68509;SDS011;55512;50.102;19.958;2022-09-27T10:16:38;14.30;;;8.70;;
68509;SDS011;55512;50.102;19.958;2022-09-27T10:19:08;14.60;;;9.10;;
68509;SDS011;55512;50.102;19.958;2022-09-27T10:21:37;16.40;;;10.20;;
68509;SDS011;55512;50.102;19.958;2022-09-27T10:24:12;15.00;;;9.60;;
68509;SDS011;55512;50.102;19.958;2022-09-27T10:26:42;19.20;;;11.50;;
68509;SDS011;55512;50.102;19.958;2022-09-27T10:31:45;26.00;;;10.70;;
68509;SDS011;55512;50.102;19.958;2022-09-27T10:37:04;24.00;;;9.90;;
68509;SDS011;55512;50.102;19.958;2022-09-27T10:39:42;13.60;;;8.50;;
68509;SDS011;55512;50.102;19.958;2022-09-27T10:42:35;11.70;;;7.10;;
68509;SDS011;55512;50.102;19.958;2022-09-27T10:47:51;13.20;;;7.10;;
68509;SDS011;55512;50.102;19.958;2022-09-27T10:50:25;13.70;;;7.20;;
68509;SDS011;55512;50.102;19.958;2022-09-27T10:53:14;11.30;;;7.80;;
68509;SDS011;55512;50.102;19.958;2022-09-27T10:55:46;11.40;;;7.10;;
68509;SDS011;55512;50.102;19.958;2022-09-27T10:58:30;11.50;;;6.50;;
68509;SDS011;55512;50.102;19.958;2022-09-27T11:01:04;14.30;;;7.10;;
68509;SDS011;55512;50.102;19.958;2022-09-27T11:03:45;10.50;;;6.10;;
68509;SDS011;55512;50.102;19.958;2022-09-27T11:08:50;11.00;;;6.50;;
68509;SDS011;55512;50.102;19.958;2022-09-27T11:11:17;12.20;;;6.90;;
68509;SDS011;55512;50.102;19.958;2022-09-27T11:14:09;13.80;;;5.80;;
68509;SDS011;55512;50.102;19.958;2022-09-27T11:28:21;11.00;;;5.70;;
68509;SDS011;55512;50.102;19.958;2022-09-27T11:39:22;9.40;;;5.30;;
68509;SDS011;55512;50.102;19.958;2022-09-27T11:50:59;11.40;;;5.70;;
68509;SDS011;55512;50.102;19.958;2022-09-27T11:57:04;10.10;;;5.60;;
68509;SDS011;55512;50.102;19.958;2022-09-27T11:59:53;19.50;;;6.00;;
68509;SDS011;55512;50.102;19.958;2022-09-27T12:03:06;12.90;;;6.20;;
68509;SDS011;55512;50.102;19.958;2022-09-27T12:06:04;11.80;;;5.80;;
68509;SDS011;55512;50.102;19.958;2022-09-27T12:08:41;11.30;;;5.40;;
68509;SDS011;55512;50.102;19.958;2022-09-27T12:17:02;8.60;;;4.80;;
68509;SDS011;55512;50.102;19.958;2022-09-27T12:19:44;9.30;;;4.70;;
68509;SDS011;55512;50.102;19.958;2022-09-27T12:22:23;9.00;;;5.10;;
68509;SDS011;55512;50.102;19.958;2022-09-27T12:24:53;9.80;;;4.70;;
68509;SDS011;55512;50.102;19.958;2022-09-27T12:27:35;9.50;;;5.50;;
68509;SDS011;55512;50.102;19.958;2022-09-27T12:30:05;8.80;;;5.10;;
68509;SDS011;55512;50.102;19.958;2022-09-27T12:32:46;12.20;;;5.20;;
68509;SDS011;55512;50.102;19.958;2022-09-27T12:35:34;8.80;;;4.60;;
68509;SDS011;55512;50.102;19.958;2022-09-27T12:38:12;9.80;;;4.40;;
68509;SDS011;55512;50.102;19.958;2022-09-27T12:40:54;9.90;;;4.20;;
68509;SDS011;55512;50.102;19.958;2022-09-27T12:43:25;7.40;;;3.80;;
68509;SDS011;55512;50.102;19.958;2022-09-27T12:52:12;17.50;;;4.50;;
68509;SDS011;55512;50.102;19.958;2022-09-27T13:01:35;13.10;;;4.00;;
68509;SDS011;55512;50.102;19.958;2022-09-27T13:04:29;8.40;;;3.20;;
68509;SDS011;55512;50.102;19.958;2022-09-27T13:07:17;15.90;;;4.10;;
68509;SDS011;55512;50.102;19.958;2022-09-27T13:12:55;8.00;;;2.80;;
68509;SDS011;55512;50.102;19.958;2022-09-27T13:15:34;6.50;;;3.20;;
68509;SDS011;55512;50.102;19.958;2022-09-27T13:18:06;7.70;;;3.50;;
68509;SDS011;55512;50.102;19.958;2022-09-27T13:24:51;9.80;;;4.30;;
68509;SDS011;55512;50.102;19.958;2022-09-27T13:32:32;13.40;;;4.60;;
68509;SDS011;55512;50.102;19.958;2022-09-27T13:35:18;11.80;;;3.80;;
68509;SDS011;55512;50.102;19.958;2022-09-27T13:37:45;5.40;;;2.70;;
68509;SDS011;55512;50.102;19.958;2022-09-27T13:45:38;5.50;;;2.40;;
68509;SDS011;55512;50.102;19.958;2022-09-27T13:51:06;5.10;;;2.30;;
68509;SDS011;55512;50.102;19.958;2022-09-27T13:53:57;7.70;;;2.60;;
68509;SDS011;55512;50.102;19.958;2022-09-27T13:59:06;8.60;;;2.50;;
68509;SDS011;55512;50.102;19.958;2022-09-27T14:01:47;8.80;;;2.50;;
68509;SDS011;55512;50.102;19.958;2022-09-27T14:04:32;6.60;;;2.40;;
68509;SDS011;55512;50.102;19.958;2022-09-27T14:07:10;6.80;;;2.50;;
68509;SDS011;55512;50.102;19.958;2022-09-27T14:09:40;6.80;;;2.60;;
68509;SDS011;55512;50.102;19.958;2022-09-27T14:12:24;10.30;;;2.60;;
68509;SDS011;55512;50.102;19.958;2022-09-27T14:14:54;7.20;;;2.90;;
68509;SDS011;55512;50.102;19.958;2022-09-27T14:17:21;6.20;;;2.90;;
68509;SDS011;55512;50.102;19.958;2022-09-27T14:19:47;5.80;;;2.80;;
68509;SDS011;55512;50.102;19.958;2022-09-27T14:22:17;7.00;;;3.20;;
68509;SDS011;55512;50.102;19.958;2022-09-27T14:24:48;5.20;;;2.40;;
68509;SDS011;55512;50.102;19.958;2022-09-27T14:27:31;6.20;;;2.70;;
68509;SDS011;55512;50.102;19.958;2022-09-27T14:30:09;10.70;;;3.30;;
68509;SDS011;55512;50.102;19.958;2022-09-27T14:32:47;8.80;;;3.10;;
68509;SDS011;55512;50.102;19.958;2022-09-27T14:35:24;8.50;;;3.40;;
68509;SDS011;55512;50.102;19.958;2022-09-27T14:38:14;8.50;;;2.90;;
68509;SDS011;55512;50.102;19.958;2022-09-27T14:41:02;6.50;;;2.80;;
68509;SDS011;55512;50.102;19.958;2022-09-27T14:43:29;6.60;;;2.80;;
68509;SDS011;55512;50.102;19.958;2022-09-27T14:46:03;15.10;;;4.10;;
68509;SDS011;55512;50.102;19.958;2022-09-27T14:48:36;9.40;;;3.10;;
68509;SDS011;55512;50.102;19.958;2022-09-27T14:53:44;11.40;;;3.60;;
68509;SDS011;55512;50.102;19.958;2022-09-27T14:56:32;11.30;;;3.00;;
68509;SDS011;55512;50.102;19.958;2022-09-27T14:59:06;7.10;;;2.70;;
68509;SDS011;55512;50.102;19.958;2022-09-27T15:01:36;7.00;;;2.80;;
68509;SDS011;55512;50.102;19.958;2022-09-27T15:04:06;13.80;;;3.60;;
68509;SDS011;55512;50.102;19.958;2022-09-27T15:06:36;9.90;;;3.40;;
68509;SDS011;55512;50.102;19.958;2022-09-27T15:09:03;13.70;;;3.60;;
68509;SDS011;55512;50.102;19.958;2022-09-27T15:11:31;10.60;;;3.20;;
68509;SDS011;55512;50.102;19.958;2022-09-27T15:13:59;10.70;;;3.20;;
68509;SDS011;55512;50.102;19.958;2022-09-27T15:16:27;8.70;;;3.00;;
68509;SDS011;55512;50.102;19.958;2022-09-27T15:18:59;9.60;;;3.80;;
68509;SDS011;55512;50.102;19.958;2022-09-27T15:21:35;13.50;;;3.80;;
68509;SDS011;55512;50.102;19.958;2022-09-27T15:24:02;7.00;;;3.20;;
68509;SDS011;55512;50.102;19.958;2022-09-27T15:26:41;6.20;;;2.90;;
68509;SDS011;55512;50.102;19.958;2022-09-27T15:29:19;5.40;;;2.00;;
68509;SDS011;55512;50.102;19.958;2022-09-27T15:31:58;5.30;;;2.10;;
68509;SDS011;55512;50.102;19.958;2022-09-27T15:34:26;5.80;;;2.10;;
68509;SDS011;55512;50.102;19.958;2022-09-27T15:36:56;6.00;;;2.40;;
68509;SDS011;55512;50.102;19.958;2022-09-27T15:39:40;5.90;;;2.50;;
68509;SDS011;55512;50.102;19.958;2022-09-27T15:42:08;6.10;;;2.60;;
68509;SDS011;55512;50.102;19.958;2022-09-27T15:44:52;6.10;;;2.60;;
68509;SDS011;55512;50.102;19.958;2022-09-27T15:52:55;3.80;;;1.80;;
68509;SDS011;55512;50.102;19.958;2022-09-27T15:55:24;3.50;;;1.60;;
68509;SDS011;55512;50.102;19.958;2022-09-27T15:58:03;4.50;;;1.80;;
68509;SDS011;55512;50.102;19.958;2022-09-27T16:00:33;5.90;;;2.00;;
68509;SDS011;55512;50.102;19.958;2022-09-27T16:03:00;4.80;;;1.80;;
68509;SDS011;55512;50.102;19.958;2022-09-27T16:05:26;5.50;;;2.20;;
68509;SDS011;55512;50.102;19.958;2022-09-27T16:07:53;5.10;;;2.30;;
68509;SDS011;55512;50.102;19.958;2022-09-27T16:10:21;4.70;;;1.50;;
68509;SDS011;55512;50.102;19.958;2022-09-27T16:12:51;4.20;;;1.90;;
68509;SDS011;55512;50.102;19.958;2022-09-27T16:15:17;3.70;;;1.40;;
68509;SDS011;55512;50.102;19.958;2022-09-27T16:17:42;3.20;;;1.30;;
68509;SDS011;55512;50.102;19.958;2022-09-27T16:20:19;3.60;;;1.30;;
68509;SDS011;55512;50.102;19.958;2022-09-27T16:22:49;4.30;;;1.30;;
68509;SDS011;55512;50.102;19.958;2022-09-27T16:25:16;3.60;;;1.40;;
68509;SDS011;55512;50.102;19.958;2022-09-27T16:27:42;3.90;;;1.30;;
68509;SDS011;55512;50.102;19.958;2022-09-27T16:30:08;4.00;;;1.30;;
68509;SDS011;55512;50.102;19.958;2022-09-27T16:32:42;4.60;;;1.60;;
68509;SDS011;55512;50.102;19.958;2022-09-27T16:35:10;2.50;;;1.20;;
68509;SDS011;55512;50.102;19.958;2022-09-27T16:37:37;4.40;;;1.20;;
68509;SDS011;55512;50.102;19.958;2022-09-27T16:40:04;3.70;;;1.60;;
68509;SDS011;55512;50.102;19.958;2022-09-27T16:42:32;3.70;;;1.50;;
68509;SDS011;55512;50.102;19.958;2022-09-27T16:44:59;2.90;;;1.40;;
68509;SDS011;55512;50.102;19.958;2022-09-27T16:47:26;3.20;;;1.30;;
68509;SDS011;55512;50.102;19.958;2022-09-27T16:49:52;4.30;;;2.00;;
68509;SDS011;55512;50.102;19.958;2022-09-27T16:52:37;7.00;;;2.20;;
68509;SDS011;55512;50.102;19.958;2022-09-27T16:55:03;4.40;;;1.50;;
68509;SDS011;55512;50.102;19.958;2022-09-27T16:57:31;4.10;;;1.50;;
68509;SDS011;55512;50.102;19.958;2022-09-27T17:00:03;3.40;;;1.40;;
68509;SDS011;55512;50.102;19.958;2022-09-27T17:02:29;3.90;;;1.40;;
68509;SDS011;55512;50.102;19.958;2022-09-27T17:04:55;4.50;;;1.40;;
68509;SDS011;55512;50.102;19.958;2022-09-27T17:07:20;3.70;;;1.60;;
68509;SDS011;55512;50.102;19.958;2022-09-27T17:09:46;5.50;;;1.80;;
68509;SDS011;55512;50.102;19.958;2022-09-27T17:12:13;3.90;;;1.60;;
68509;SDS011;55512;50.102;19.958;2022-09-27T17:14:39;4.80;;;1.80;;
68509;SDS011;55512;50.102;19.958;2022-09-27T17:17:06;5.50;;;2.40;;
68509;SDS011;55512;50.102;19.958;2022-09-27T17:19:32;5.90;;;2.60;;
68509;SDS011;55512;50.102;19.958;2022-09-27T17:21:58;6.20;;;2.60;;
68509;SDS011;55512;50.102;19.958;2022-09-27T17:24:25;6.10;;;2.80;;
68509;SDS011;55512;50.102;19.958;2022-09-27T17:26:50;8.20;;;3.20;;
68509;SDS011;55512;50.102;19.958;2022-09-27T17:29:16;7.10;;;3.40;;
68509;SDS011;55512;50.102;19.958;2022-09-27T17:31:42;8.10;;;3.50;;
68509;SDS011;55512;50.102;19.958;2022-09-27T17:34:11;7.80;;;3.90;;